Terminal Aerodrome Forecast
Issued by NWS

Home | Current Version | Previous Version | Graphics & Text | Print | Product List | Glossary On
Versions: 1 2 3 4 5 6 7 8 9 10 11 12 13 14 15
000
FTUS43 KGLD 252351
TAFMCK
TAF
KMCK 252351Z 2600/2624 11008KT P6SM SKC
     FM260900 VRB04KT 5SM BR SCT002 BKN006
     FM261100 VRB03KT 1/2SM FG OVC002
     FM261500 30008KT P6SM SCT300=

USA.gov is the U.S. government's official web portal to all federal, state and local government web resources and services.